createdAt,value
2023-05-11T00:03:02.307Z,60.12
2023-05-11T00:08:04.148Z,60.34
2023-05-11T00:13:06.154Z,60.45
2023-05-11T00:18:07.997Z,60.74
2023-05-11T00:23:09.664Z,60.65
2023-05-11T00:28:11.369Z,60.64
2023-05-11T00:33:13.130Z,60.86
2023-05-11T00:38:15.706Z,60.74
2023-05-11T00:43:17.396Z,60.79
2023-05-11T00:48:19.468Z,60.87
2023-05-11T00:53:21.620Z,61.36
2023-05-11T00:58:23.789Z,61.53
2023-05-11T01:03:26.716Z,61.63
2023-05-11T01:08:48.093Z,61.90
2023-05-11T01:13:56.208Z,62.66
2023-05-11T01:19:12.627Z,63.12
2023-05-11T01:24:32.064Z,63.57
2023-05-11T01:29:58.700Z,63.96
2023-05-11T01:35:23.343Z,64.86
2023-05-11T01:40:29.446Z,65.22
2023-05-11T01:45:34.726Z,65.14
2023-05-11T01:50:38.820Z,65.50
2023-05-11T01:55:42.610Z,65.38
2023-05-11T02:00:45.547Z,65.43
2023-05-11T02:05:49.546Z,66.23
2023-05-11T02:10:51.864Z,66.51
2023-05-11T02:15:56.777Z,67.16
2023-05-11T02:21:00.335Z,67.15
2023-05-11T02:26:03.797Z,67.32
2023-05-11T02:31:12.062Z,67.55
2023-05-11T02:36:19.473Z,67.82
2023-05-11T02:41:27.848Z,67.99
2023-05-11T02:46:36.875Z,68.58
2023-05-11T02:51:42.916Z,69.08
2023-05-11T02:56:45.733Z,70.31
2023-05-11T03:01:48.239Z,70.66
2023-05-11T03:06:50.834Z,71.22
2023-05-11T03:11:53.507Z,71.33
2023-05-11T03:16:57.108Z,71.59
2023-05-11T03:22:00.968Z,72.12
2023-05-11T03:27:05.866Z,72.46
2023-05-11T03:32:09.518Z,72.49
2023-05-11T03:37:14.743Z,72.57
2023-05-11T03:42:18.369Z,72.84
2023-05-11T03:47:20.980Z,72.67
2023-05-11T03:52:23.588Z,71.58
2023-05-11T03:57:26.786Z,71.28
2023-05-11T04:07:12.914Z,71.40
2023-05-11T04:12:14.679Z,71.37
2023-05-11T04:17:16.973Z,71.17
2023-05-11T04:22:19.662Z,71.35
2023-05-11T04:27:21.347Z,71.36
2023-05-11T04:32:23.587Z,71.35
2023-05-11T04:37:25.607Z,71.42
2023-05-11T04:42:27.679Z,71.17
2023-05-11T04:47:31.039Z,71.03
2023-05-11T04:52:33.575Z,70.97
2023-05-11T04:57:35.465Z,70.15
2023-05-11T05:02:38.637Z,67.36
2023-05-11T05:07:40.598Z,64.13
2023-05-11T05:12:42.438Z,61.34
2023-05-11T05:17:44.449Z,58.92
2023-05-11T05:22:46.440Z,56.75
2023-05-11T05:27:48.199Z,55.50
2023-05-11T05:32:54.991Z,54.55
2023-05-11T05:37:56.772Z,52.34
2023-05-11T05:42:58.613Z,51.62
2023-05-11T05:48:00.847Z,50.72
2023-05-11T05:53:02.860Z,50.75
2023-05-11T05:58:05.661Z,49.95
2023-05-11T06:03:07.578Z,49.61
2023-05-11T06:08:11.707Z,49.66
2023-05-11T06:13:14.272Z,48.17
2023-05-11T06:18:16.786Z,47.52
2023-05-11T06:23:19.016Z,47.53
2023-05-11T06:28:24.347Z,46.33
2023-05-11T06:33:27.103Z,45.32
2023-05-11T06:38:30.132Z,44.26
2023-05-11T06:43:32.167Z,42.91
2023-05-11T06:48:36.299Z,43.96
2023-05-11T06:53:38.672Z,43.63
2023-05-11T06:58:40.341Z,44.41
2023-05-11T07:03:42.171Z,43.87
2023-05-11T07:08:44.116Z,43.51
2023-05-11T07:13:45.995Z,42.65
2023-05-11T07:18:47.705Z,41.29
2023-05-11T07:23:49.534Z,41.34
2023-05-11T07:28:51.210Z,40.78
2023-05-11T07:33:53.374Z,40.93
2023-05-11T07:38:55.222Z,39.30
2023-05-11T07:43:56.919Z,36.65
2023-05-11T07:49:13.681Z,36.14
2023-05-11T07:54:18.832Z,36.08
2023-05-11T07:59:21.812Z,35.86
2023-05-11T08:04:23.730Z,36.59
2023-05-11T08:09:25.479Z,36.36
2023-05-11T08:14:27.263Z,36.11
2023-05-11T08:19:28.879Z,35.36
2023-05-11T08:24:30.532Z,33.91
2023-05-11T08:29:32.199Z,32.27
2023-05-11T08:34:33.938Z,32.02
2023-05-11T08:39:46.580Z,30.79
2023-05-11T08:44:49.636Z,30.55
2023-05-11T08:49:54.598Z,29.67
2023-05-11T08:54:56.337Z,29.74
2023-05-11T08:59:59.988Z,29.53
2023-05-11T09:05:04.293Z,28.44
2023-05-11T09:10:07.253Z,28.74
2023-05-11T09:15:09.594Z,28.11
2023-05-11T09:20:11.862Z,27.44
2023-05-11T09:25:15.009Z,26.81
2023-05-11T09:30:22.847Z,25.86
2023-05-11T09:35:27.382Z,27.42
2023-05-11T09:40:34.276Z,28.71
2023-05-11T09:45:46.389Z,30.08
2023-05-11T09:50:49.641Z,29.49
2023-05-11T09:55:53.138Z,30.15
2023-05-11T10:00:54.871Z,30.47
2023-05-11T10:05:59.400Z,30.03
2023-05-11T10:11:06.778Z,28.18
2023-05-11T10:16:10.277Z,27.60
2023-05-11T10:21:15.338Z,25.69
2023-05-11T10:26:17.952Z,25.95
2023-05-11T10:31:24.178Z,25.41
2023-05-11T10:36:26.464Z,24.80
2023-05-11T10:41:48.184Z,23.34
2023-05-11T10:47:22.174Z,22.73
2023-05-11T10:52:29.612Z,22.84
2023-05-11T10:58:09.481Z,24.00
2023-05-11T11:03:12.425Z,25.58
2023-05-11T11:08:14.219Z,25.44
2023-05-11T11:13:18.243Z,26.45
2023-05-11T11:18:21.629Z,26.62
2023-05-11T11:23:50.035Z,26.15
2023-05-11T11:28:54.915Z,25.04
2023-05-11T11:33:59.328Z,22.52
2023-05-11T11:39:03.794Z,21.54
2023-05-11T11:44:19.886Z,19.89
2023-05-11T11:49:27.212Z,19.96
2023-05-11T11:54:42.419Z,19.63
2023-05-11T11:59:49.118Z,18.81
2023-05-11T12:04:57.013Z,18.88
2023-05-11T12:10:02.037Z,18.65
2023-05-11T12:15:06.760Z,17.98
2023-05-11T12:20:13.651Z,18.17
2023-05-11T12:25:18.133Z,17.46
2023-05-11T12:30:24.684Z,17.33
2023-05-11T12:35:28.779Z,17.60
2023-05-11T12:40:31.357Z,17.62
2023-05-11T12:45:33.080Z,18.14
2023-05-11T12:50:43.808Z,18.66
2023-05-11T12:55:56.825Z,17.08
2023-05-11T13:00:59.864Z,15.05
2023-05-11T13:06:09.134Z,15.52
2023-05-11T13:11:22.567Z,15.93
2023-05-11T13:16:34.495Z,16.95
2023-05-11T13:21:36.399Z,16.93
2023-05-11T13:26:38.083Z,16.88
2023-05-11T13:31:47.946Z,16.52
2023-05-11T13:36:50.190Z,17.57
2023-05-11T13:41:53.672Z,17.62
2023-05-11T13:46:56.800Z,17.70
2023-05-11T13:51:59.977Z,17.49
2023-05-11T13:57:02.039Z,17.51
2023-05-11T14:02:03.956Z,17.52
2023-05-11T14:07:06.095Z,17.51
2023-05-11T14:12:08.220Z,17.87
2023-05-11T14:17:16.095Z,18.24
2023-05-11T14:22:17.759Z,18.63
2023-05-11T14:27:19.701Z,18.72
2023-05-11T14:32:21.615Z,18.59
2023-05-11T14:37:23.265Z,18.60
2023-05-11T14:42:25.007Z,19.21
2023-05-11T14:47:26.814Z,19.48
2023-05-11T14:52:28.540Z,19.49
2023-05-11T14:57:30.248Z,19.01
2023-05-11T15:02:32.017Z,20.00
2023-05-11T15:07:33.716Z,20.98
2023-05-11T15:12:35.639Z,21.13
2023-05-11T15:17:37.386Z,21.03
2023-05-11T15:22:39.093Z,21.43
2023-05-11T15:27:40.780Z,23.08
2023-05-11T15:32:43.069Z,23.16
2023-05-11T15:37:44.812Z,24.29
2023-05-11T15:42:46.500Z,25.00
2023-05-11T15:47:48.216Z,25.56
2023-05-11T15:52:50.069Z,25.42
2023-05-11T15:57:51.746Z,24.91
2023-05-11T16:02:53.567Z,24.68
2023-05-11T16:07:55.219Z,25.32
2023-05-11T16:12:58.789Z,25.09
2023-05-11T16:18:03.112Z,24.00
2023-05-11T16:23:06.862Z,23.37
2023-05-11T16:28:08.500Z,23.46
2023-05-11T16:33:10.439Z,23.33
2023-05-11T16:38:22.474Z,23.95
2023-05-11T16:43:24.286Z,24.34
2023-05-11T16:48:28.822Z,24.37
2023-05-11T16:53:31.702Z,24.71
2023-05-11T16:58:33.503Z,24.84
2023-05-11T17:03:35.352Z,25.61
2023-05-11T17:08:37.166Z,25.85
2023-05-11T17:13:38.836Z,26.11
2023-05-11T17:18:40.653Z,26.29
2023-05-11T17:23:43.487Z,26.89
2023-05-11T17:28:45.208Z,27.52
2023-05-11T17:33:46.955Z,28.05
2023-05-11T17:38:49.820Z,28.95
2023-05-11T17:43:51.507Z,30.20
2023-05-11T17:48:54.096Z,31.16
2023-05-11T17:53:56.249Z,32.43
2023-05-11T17:58:57.934Z,33.38
2023-05-11T18:04:00.621Z,34.64
2023-05-11T18:09:04.942Z,35.82
2023-05-11T18:14:06.930Z,36.84
2023-05-11T18:19:08.678Z,37.59
2023-05-11T18:24:10.705Z,38.26
2023-05-11T18:29:12.405Z,39.09
2023-05-11T18:34:14.134Z,39.83
2023-05-11T18:39:16.049Z,40.59
2023-05-11T18:44:19.202Z,41.23
2023-05-11T18:49:21.046Z,41.77
2023-05-11T18:54:22.702Z,42.56
2023-05-11T18:59:24.377Z,43.25
2023-05-11T19:04:26.951Z,43.83
2023-05-11T19:09:28.605Z,44.49
2023-05-11T19:14:30.540Z,44.73
2023-05-11T19:19:32.208Z,45.15
2023-05-11T19:24:35.098Z,45.10
2023-05-11T19:29:36.820Z,45.45
2023-05-11T19:34:38.835Z,45.61
2023-05-11T19:39:41.042Z,45.72
2023-05-11T19:44:44.255Z,46.27
2023-05-11T19:49:46.199Z,46.39
2023-05-11T19:54:47.829Z,46.89
2023-05-11T19:59:49.624Z,47.19
2023-05-11T20:04:51.828Z,47.36
2023-05-11T20:09:54.382Z,48.07
2023-05-11T20:14:56.055Z,48.57
2023-05-11T20:19:58.417Z,48.89
2023-05-11T20:25:00.190Z,49.41
2023-05-11T20:30:03.039Z,49.79
2023-05-11T20:35:05.704Z,49.89
2023-05-11T20:40:08.635Z,50.86
2023-05-11T20:45:10.436Z,51.29
2023-05-11T20:50:14.993Z,51.53
2023-05-11T20:55:17.725Z,51.90
2023-05-11T21:00:20.720Z,52.50
2023-05-11T21:05:25.515Z,52.25
2023-05-11T21:10:32.842Z,52.35
2023-05-11T21:15:37.834Z,52.49
2023-05-11T21:20:39.561Z,52.92
2023-05-11T21:25:41.375Z,53.31
2023-05-11T21:30:43.056Z,53.52
2023-05-11T21:35:44.932Z,53.57
2023-05-11T21:40:52.595Z,53.82
2023-05-11T21:45:54.669Z,53.90
2023-05-11T21:51:01.407Z,54.18
2023-05-11T21:56:03.140Z,54.69
2023-05-11T22:01:04.862Z,54.69
2023-05-11T22:06:06.798Z,54.77
2023-05-11T22:11:08.707Z,55.18
2023-05-11T22:16:10.410Z,55.87
2023-05-11T22:21:12.382Z,56.11
2023-05-11T22:26:14.047Z,56.15
2023-05-11T22:31:15.761Z,56.11
2023-05-11T22:36:17.428Z,56.56
2023-05-11T22:41:19.182Z,56.78
2023-05-11T22:46:20.880Z,57.33
2023-05-11T22:51:22.846Z,57.70
2023-05-11T22:56:24.614Z,58.00
2023-05-11T23:01:27.817Z,58.10
2023-05-11T23:06:30.013Z,58.12
2023-05-11T23:11:40.224Z,58.33
2023-05-11T23:16:44.091Z,58.99
2023-05-11T23:21:45.760Z,59.30
2023-05-11T23:26:47.481Z,59.47
2023-05-11T23:31:50.948Z,59.44
2023-05-11T23:36:53.114Z,59.77
2023-05-11T23:42:15.016Z,59.82
2023-05-11T23:47:18.395Z,59.86
2023-05-11T23:52:20.141Z,59.69
2023-05-11T23:57:21.813Z,60.38
